Time;durP1;ratioP1;P1;durP2;ratioP2;P2;SDS_P1;SDS_P2;PMS_P1;PMS_P2;Temp;Humidity;BMP_temperature;BMP_pressure;BME280_temperature;BME280_humidity;BME280_pressure;Samples;Min_cycle;Max_cycle;Signal;HPM_P1;HPM_P2
2023/07/12 00:01:17;;;;;;;37.45;9.05;;;;;;;;;;5034434;28;20069;-68
2023/07/12 00:04:58;;;;;;;32.95;9.35;;;;;;;;;;5035864;28;20056;-66
2023/07/12 00:08:40;;;;;;;30.23;8.60;;;;;;;;;;5038482;28;20068;-68
2023/07/12 00:12:18;;;;;;;31.25;9.43;;;;;;;;;;5039307;28;20503;-67
2023/07/12 00:15:58;;;;;;;31.27;8.23;;;;;;;;;;5033254;28;20051;-66
2023/07/12 00:19:39;;;;;;;30.00;9.40;;;;;;;;;;5040218;28;20392;-66
2023/07/12 00:23:19;;;;;;;31.70;9.25;;;;;;;;;;5032745;28;20055;-70
2023/07/12 00:27:02;;;;;;;34.88;9.55;;;;;;;;;;5035880;28;20056;-67
2023/07/12 00:31:01;;;;;;;29.92;9.82;;;;;;;;;;5040194;28;20045;-68
2023/07/12 00:34:41;;;;;;;35.60;11.32;;;;;;;;;;5029490;28;20105;-66
2023/07/12 00:38:22;;;;;;;37.63;10.93;;;;;;;;;;5032884;28;20044;-67
2023/07/12 00:41:50;;;;;;;36.75;10.48;;;;;;;;;;5034988;28;20458;-66
2023/07/12 00:45:30;;;;;;;24.67;9.95;;;;;;;;;;5033408;28;20053;-67
2023/07/12 00:49:11;;;;;;;33.78;10.30;;;;;;;;;;5034861;28;20065;-70
2023/07/12 00:52:52;;;;;;;42.60;10.32;;;;;;;;;;5037273;28;20061;-67
2023/07/12 00:56:31;;;;;;;35.97;10.40;;;;;;;;;;5034013;28;20052;-66
2023/07/12 01:00:12;;;;;;;36.65;9.95;;;;;;;;;;5035867;28;20053;-65
2023/07/12 01:03:52;;;;;;;29.35;9.98;;;;;;;;;;5034824;28;20148;-68
2023/07/12 01:07:34;;;;;;;26.60;10.27;;;;;;;;;;5022471;28;20048;-66
2023/07/12 01:11:13;;;;;;;29.25;10.23;;;;;;;;;;5041349;28;20601;-68
2023/07/12 01:14:53;;;;;;;34.15;10.15;;;;;;;;;;5044390;28;20055;-66
2023/07/12 01:18:34;;;;;;;38.53;10.93;;;;;;;;;;5040377;28;20406;-69
2023/07/12 01:22:14;;;;;;;33.15;10.25;;;;;;;;;;5041507;28;20124;-68
2023/07/12 01:25:54;;;;;;;28.45;11.30;;;;;;;;;;5040603;28;20048;-66
2023/07/12 01:29:34;;;;;;;34.33;12.27;;;;;;;;;;5045463;28;20045;-66
2023/07/12 01:33:15;;;;;;;31.58;11.52;;;;;;;;;;5046451;28;20041;-66
2023/07/12 01:36:55;;;;;;;40.60;11.63;;;;;;;;;;5040301;28;20414;-67
2023/07/12 01:40:35;;;;;;;35.95;12.40;;;;;;;;;;5039109;28;20080;-67
2023/07/12 01:44:16;;;;;;;45.85;12.75;;;;;;;;;;5039815;28;20049;-66
2023/07/12 01:47:56;;;;;;;33.63;12.98;;;;;;;;;;5040841;28;20132;-68
2023/07/12 01:51:36;;;;;;;40.78;14.13;;;;;;;;;;5040950;28;20507;-66
2023/07/12 01:55:17;;;;;;;31.48;13.23;;;;;;;;;;5041968;28;20266;-66
2023/07/12 01:58:58;;;;;;;32.85;13.52;;;;;;;;;;5042879;28;20139;-65
2023/07/12 02:02:38;;;;;;;34.75;13.95;;;;;;;;;;5037168;28;20048;-70
2023/07/12 02:06:18;;;;;;;31.50;13.02;;;;;;;;;;5042481;28;20040;-67
2023/07/12 02:09:58;;;;;;;34.53;13.48;;;;;;;;;;5039753;28;20051;-68
2023/07/12 02:13:39;;;;;;;38.03;14.52;;;;;;;;;;5031065;28;20038;-67
2023/07/12 02:17:19;;;;;;;36.63;15.27;;;;;;;;;;5035411;28;20036;-68
2023/07/12 02:20:59;;;;;;;40.20;14.63;;;;;;;;;;5034894;28;20040;-66
2023/07/12 02:24:40;;;;;;;47.80;15.02;;;;;;;;;;5042511;28;20045;-67
2023/07/12 02:28:20;;;;;;;36.38;14.38;;;;;;;;;;5039688;28;20401;-68
2023/07/12 02:32:00;;;;;;;41.50;14.30;;;;;;;;;;5035198;28;20057;-66
2023/07/12 02:35:41;;;;;;;40.00;13.88;;;;;;;;;;5030502;28;20497;-66
2023/07/12 02:39:21;;;;;;;44.22;14.38;;;;;;;;;;5038171;28;20067;-68
2023/07/12 02:43:01;;;;;;;38.78;14.40;;;;;;;;;;5035538;28;20489;-66
2023/07/12 02:46:42;;;;;;;38.88;14.75;;;;;;;;;;5038986;28;20048;-66
2023/07/12 02:50:22;;;;;;;43.83;14.88;;;;;;;;;;5030492;28;20504;-65
2023/07/12 02:54:03;;;;;;;35.65;15.07;;;;;;;;;;5040475;28;20437;-66
2023/07/12 02:57:43;;;;;;;46.53;16.60;;;;;;;;;;5037459;28;20077;-66
2023/07/12 03:01:25;;;;;;;37.13;14.38;;;;;;;;;;5037366;28;20070;-68
2023/07/12 03:05:04;;;;;;;30.60;13.77;;;;;;;;;;5043938;28;20047;-68
2023/07/12 03:08:44;;;;;;;29.58;12.73;;;;;;;;;;5039324;28;20079;-67
2023/07/12 03:12:25;;;;;;;29.52;11.98;;;;;;;;;;5039810;28;20044;-67
2023/07/12 03:16:05;;;;;;;26.45;11.00;;;;;;;;;;5039857;28;20053;-67
2023/07/12 03:19:46;;;;;;;31.20;11.05;;;;;;;;;;5038648;28;22272;-67
2023/07/12 03:23:26;;;;;;;31.05;10.05;;;;;;;;;;5039393;28;20789;-67
2023/07/12 03:26:40;;;;;;;30.70;9.93;;;;;;;;;;5039553;28;20041;-66
2023/07/12 03:30:22;;;;;;;36.80;9.55;;;;;;;;;;5038507;28;20045;-68
2023/07/12 03:34:02;;;;;;;24.65;9.40;;;;;;;;;;5039713;28;20049;-67
2023/07/12 03:37:43;;;;;;;31.35;9.35;;;;;;;;;;5037225;28;20049;-68
2023/07/12 03:41:26;;;;;;;25.85;8.63;;;;;;;;;;5035905;28;20068;-67
2023/07/12 03:45:06;;;;;;;24.85;8.48;;;;;;;;;;5031137;28;20052;-67
2023/07/12 03:48:46;;;;;;;21.60;8.07;;;;;;;;;;5033648;28;20083;-66
2023/07/12 03:52:27;;;;;;;28.10;8.57;;;;;;;;;;5036914;28;20408;-67
2023/07/12 03:56:07;;;;;;;22.15;7.90;;;;;;;;;;5036912;28;20131;-68
2023/07/12 03:59:50;;;;;;;38.55;8.63;;;;;;;;;;5037525;28;20056;-67
2023/07/12 04:03:30;;;;;;;26.80;7.93;;;;;;;;;;5034764;28;20046;-68
2023/07/12 04:07:11;;;;;;;23.15;8.20;;;;;;;;;;5026501;28;20596;-67
2023/07/12 04:10:51;;;;;;;39.22;8.25;;;;;;;;;;5038057;28;20103;-67
2023/07/12 04:14:31;;;;;;;23.52;6.65;;;;;;;;;;5038146;28;20110;-68
2023/07/12 04:18:12;;;;;;;26.77;6.57;;;;;;;;;;5036362;28;20049;-69
2023/07/12 04:21:53;;;;;;;24.95;7.20;;;;;;;;;;5041689;28;21451;-70
2023/07/12 04:25:34;;;;;;;17.63;7.03;;;;;;;;;;5040613;28;20437;-69
2023/07/12 04:29:14;;;;;;;19.17;6.80;;;;;;;;;;5036268;28;20485;-69
2023/07/12 04:32:54;;;;;;;29.55;7.10;;;;;;;;;;5035002;28;20087;-68
2023/07/12 04:36:36;;;;;;;27.13;7.00;;;;;;;;;;5034801;28;20042;-68
2023/07/12 04:40:17;;;;;;;23.20;6.32;;;;;;;;;;5039320;28;20036;-75
2023/07/12 04:43:57;;;;;;;26.58;7.18;;;;;;;;;;5043925;28;20400;-69
2023/07/12 04:47:37;;;;;;;22.15;6.90;;;;;;;;;;5040089;28;20040;-68
2023/07/12 04:51:18;;;;;;;28.63;7.15;;;;;;;;;;5033295;28;20061;-69
2023/07/12 04:54:58;;;;;;;24.55;7.65;;;;;;;;;;5038115;28;20060;-69
2023/07/12 04:58:39;;;;;;;26.52;7.68;;;;;;;;;;5043837;28;20045;-69
2023/07/12 05:02:19;;;;;;;20.42;6.93;;;;;;;;;;5033518;28;20076;-68
2023/07/12 05:05:59;;;;;;;25.60;8.13;;;;;;;;;;5043512;28;20052;-68
2023/07/12 05:09:40;;;;;;;28.52;7.55;;;;;;;;;;5040068;28;20052;-68
2023/07/12 05:13:20;;;;;;;28.08;7.00;;;;;;;;;;5033529;28;20489;-64
2023/07/12 05:17:00;;;;;;;25.55;6.65;;;;;;;;;;5020987;28;20132;-68
2023/07/12 05:20:41;;;;;;;28.17;7.10;;;;;;;;;;5015076;28;20055;-68
2023/07/12 05:24:21;;;;;;;29.40;7.38;;;;;;;;;;5012886;28;21092;-66
2023/07/12 05:28:02;;;;;;;21.65;6.38;;;;;;;;;;5013500;28;20056;-67
2023/07/12 05:31:45;;;;;;;31.45;8.00;;;;;;;;;;5017757;28;20402;-66
2023/07/12 05:35:25;;;;;;;21.77;7.57;;;;;;;;;;5017103;28;20062;-64
2023/07/12 05:39:05;;;;;;;29.85;7.93;;;;;;;;;;5016552;28;20210;-64
2023/07/12 05:42:46;;;;;;;31.02;7.72;;;;;;;;;;5015508;28;20639;-67
2023/07/12 05:46:26;;;;;;;29.35;8.30;;;;;;;;;;5015862;28;20077;-67
2023/07/12 05:50:06;;;;;;;30.00;9.35;;;;;;;;;;5018430;28;20131;-67
2023/07/12 05:53:46;;;;;;;36.13;9.82;;;;;;;;;;5021249;28;20565;-66
2023/07/12 05:57:27;;;;;;;32.50;10.10;;;;;;;;;;5016928;28;20520;-66
2023/07/12 06:01:07;;;;;;;33.15;12.00;;;;;;;;;;5023099;28;20157;-64
2023/07/12 06:04:48;;;;;;;35.47;11.57;;;;;;;;;;5032108;28;20048;-64
2023/07/12 06:08:28;;;;;;;29.95;11.40;;;;;;;;;;5036278;28;20052;-64
2023/07/12 06:12:08;;;;;;;31.13;12.02;;;;;;;;;;5030648;28;20107;-65
2023/07/12 06:15:49;;;;;;;41.80;13.10;;;;;;;;;;5035119;28;20325;-68
2023/07/12 06:19:29;;;;;;;40.45;12.50;;;;;;;;;;5032185;28;20616;-66
2023/07/12 06:23:10;;;;;;;33.03;12.93;;;;;;;;;;5033151;28;20083;-67
2023/07/12 06:26:50;;;;;;;47.72;14.10;;;;;;;;;;5035247;28;20049;-65
2023/07/12 06:30:31;;;;;;;34.67;14.10;;;;;;;;;;5037185;28;20073;-64
2023/07/12 06:34:11;;;;;;;36.35;13.80;;;;;;;;;;5027188;28;20045;-64
2023/07/12 06:37:51;;;;;;;36.75;15.52;;;;;;;;;;5023034;28;20059;-73
2023/07/12 06:41:31;;;;;;;39.58;13.57;;;;;;;;;;5031765;28;20489;-67
2023/07/12 06:45:12;;;;;;;39.22;13.55;;;;;;;;;;5031583;28;20052;-67
2023/07/12 06:48:52;;;;;;;42.42;13.13;;;;;;;;;;5033523;28;20378;-68
2023/07/12 06:52:32;;;;;;;37.85;13.55;;;;;;;;;;5034283;28;20048;-67
2023/07/12 06:56:13;;;;;;;46.78;12.73;;;;;;;;;;5032588;28;20056;-67
2023/07/12 06:59:53;;;;;;;40.90;12.07;;;;;;;;;;5033920;28;20696;-66
2023/07/12 07:03:34;;;;;;;30.63;10.25;;;;;;;;;;5032724;28;20688;-67
2023/07/12 07:07:14;;;;;;;31.00;10.40;;;;;;;;;;5026217;28;20045;-69
2023/07/12 07:10:56;;;;;;;37.95;9.60;;;;;;;;;;5028060;28;20496;-68
2023/07/12 07:14:35;;;;;;;38.30;9.98;;;;;;;;;;5040399;28;20044;-69
2023/07/12 07:18:15;;;;;;;33.75;9.73;;;;;;;;;;5036865;28;20067;-69
2023/07/12 07:21:55;;;;;;;30.42;9.88;;;;;;;;;;5035861;28;20106;-69
2023/07/12 07:25:36;;;;;;;31.80;9.52;;;;;;;;;;5039178;28;20048;-68
2023/07/12 07:29:19;;;;;;;30.05;8.55;;;;;;;;;;5028937;28;20041;-68
2023/07/12 07:33:00;;;;;;;30.40;8.32;;;;;;;;;;5029221;28;20064;-72
2023/07/12 07:36:40;;;;;;;31.48;8.68;;;;;;;;;;5039478;28;20043;-67
2023/07/12 07:40:20;;;;;;;36.25;8.23;;;;;;;;;;5034958;28;20132;-69
2023/07/12 07:44:00;;;;;;;24.48;6.63;;;;;;;;;;5033623;28;20099;-70
2023/07/12 07:47:41;;;;;;;30.55;6.82;;;;;;;;;;5037773;28;20393;-68
2023/07/12 07:51:21;;;;;;;26.55;6.68;;;;;;;;;;5037130;28;20050;-69
2023/07/12 07:55:02;;;;;;;28.38;7.28;;;;;;;;;;5032690;28;20064;-69
2023/07/12 07:58:45;;;;;;;26.08;6.40;;;;;;;;;;5040631;28;20067;-69
2023/07/12 08:02:25;;;;;;;22.02;6.88;;;;;;;;;;5038040;28;20066;-70
2023/07/12 08:06:06;;;;;;;30.02;7.25;;;;;;;;;;5044252;28;20098;-72
2023/07/12 08:09:46;;;;;;;26.20;5.88;;;;;;;;;;5034109;28;20527;-71
2023/07/12 08:13:26;;;;;;;22.13;6.55;;;;;;;;;;5043254;28;20109;-73
2023/07/12 08:17:07;;;;;;;19.92;5.78;;;;;;;;;;5039999;28;20041;-69
2023/07/12 08:20:47;;;;;;;19.50;5.65;;;;;;;;;;5038801;28;20063;-69
2023/07/12 08:24:27;;;;;;;23.33;5.60;;;;;;;;;;5044639;28;20041;-69
2023/07/12 08:28:08;;;;;;;20.50;5.95;;;;;;;;;;5035937;28;20659;-68
2023/07/12 08:31:48;;;;;;;22.92;5.85;;;;;;;;;;5044050;28;20127;-69
2023/07/12 08:35:28;;;;;;;23.45;6.13;;;;;;;;;;5041635;28;20105;-66
2023/07/12 08:39:09;;;;;;;18.13;5.03;;;;;;;;;;5043539;28;20497;-70
2023/07/12 08:42:58;;;;;;;25.48;5.65;;;;;;;;;;5038708;28;20045;-71
2023/07/12 08:46:38;;;;;;;17.77;5.57;;;;;;;;;;5041548;28;20041;-68
2023/07/12 08:50:19;;;;;;;17.77;4.40;;;;;;;;;;5034088;28;20456;-69
2023/07/12 08:54:02;;;;;;;19.95;4.85;;;;;;;;;;5043175;28;20053;-72
2023/07/12 08:57:38;;;;;;;25.13;5.47;;;;;;;;;;5035818;28;20512;-69
2023/07/12 09:00:58;;;;;;;;;;;;;;;;;;5040836;28;20489;-68
2023/07/12 09:04:41;;;;;;;23.40;5.53;;;;;;;;;;5043046;28;19928;-67
2023/07/12 09:08:10;;;;;;;18.92;5.13;;;;;;;;;;5039343;28;20229;-68
2023/07/12 09:11:53;;;;;;;26.48;5.97;;;;;;;;;;5037366;28;20084;-68
2023/07/12 09:15:34;;;;;;;20.73;5.85;;;;;;;;;;5041751;28;20060;-69
2023/07/12 09:19:14;;;;;;;22.73;5.68;;;;;;;;;;5040108;28;20041;-71
2023/07/12 09:22:55;;;;;;;23.10;5.93;;;;;;;;;;5040382;28;20041;-71
2023/07/12 09:26:20;;;;;;;25.42;6.70;;;;;;;;;;5037001;28;20450;-67
2023/07/12 09:30:01;;;;;;;28.38;6.30;;;;;;;;;;5037958;28;20063;-71
2023/07/12 09:33:41;;;;;;;22.80;6.03;;;;;;;;;;5041897;28;20087;-67
2023/07/12 09:37:24;;;;;;;23.35;6.03;;;;;;;;;;5028928;28;20036;-68
2023/07/12 09:41:04;;;;;;;25.42;5.93;;;;;;;;;;5035962;28;20049;-67
2023/07/12 09:44:44;;;;;;;17.85;5.57;;;;;;;;;;5034644;28;20045;-68
2023/07/12 09:48:20;;;;;;;27.85;6.70;;;;;;;;;;5035068;28;20051;-67
2023/07/12 09:51:42;;;;;;;32.40;6.18;;;;;;;;;;5034027;28;20041;-69
2023/07/12 09:55:12;;;;;;;27.67;6.70;;;;;;;;;;5034624;28;20064;-70
2023/07/12 09:59:23;;;;;;;24.48;5.82;;;;;;;;;;5036422;28;20115;-70
2023/07/12 10:03:10;;;;;;;19.42;5.60;;;;;;;;;;5036480;28;20155;-73
2023/07/12 10:07:08;;;;;;;25.10;6.30;;;;;;;;;;5040953;28;20147;-69
2023/07/12 10:10:55;;;;;;;25.50;5.65;;;;;;;;;;5030541;28;20114;-70
2023/07/12 10:14:35;;;;;;;19.58;5.68;;;;;;;;;;5041483;28;20059;-68
2023/07/12 10:18:15;;;;;;;20.85;5.57;;;;;;;;;;5027705;28;20190;-68
2023/07/12 10:21:59;;;;;;;27.77;5.95;;;;;;;;;;5032192;28;20056;-68
2023/07/12 10:25:48;;;;;;;29.13;6.03;;;;;;;;;;5044851;28;20053;-68
2023/07/12 10:29:04;;;;;;;;;;;;;;;;;;5046804;28;20045;-69
2023/07/12 10:32:44;;;;;;;21.65;6.20;;;;;;;;;;5039907;28;19968;-67
2023/07/12 10:36:27;;;;;;;25.42;5.60;;;;;;;;;;5035458;28;20071;-68
2023/07/12 10:40:07;;;;;;;24.08;5.90;;;;;;;;;;5035992;28;20048;-68
2023/07/12 10:43:57;;;;;;;27.25;6.00;;;;;;;;;;5034071;28;20507;-69
2023/07/12 10:47:01;;;;;;;31.63;6.22;;;;;;;;;;5033038;28;20041;-69
2023/07/12 10:49:56;;;;;;;22.60;5.90;;;;;;;;;;5038844;28;20657;-71
2023/07/12 10:52:28;;;;;;;26.38;6.40;;;;;;;;;;5039994;28;20126;-71
2023/07/12 10:55:15;;;;;;;29.17;6.65;;;;;;;;;;5041831;28;20061;-70
2023/07/12 10:57:51;;;;;;;32.42;6.63;;;;;;;;;;5034680;28;20139;-69
2023/07/12 11:00:16;;;;;;;23.40;5.72;;;;;;;;;;5034103;28;20045;-68
2023/07/12 11:02:46;;;;;;;29.73;6.57;;;;;;;;;;5033424;28;20110;-69
2023/07/12 11:05:43;;;;;;;29.73;6.18;;;;;;;;;;5033592;28;20051;-70
2023/07/12 11:08:36;;;;;;;39.50;6.28;;;;;;;;;;5002748;28;20061;-71
2023/07/12 11:11:21;;;;;;;28.77;6.30;;;;;;;;;;4978354;28;20058;-70
2023/07/12 11:13:56;;;;;;;23.50;6.05;;;;;;;;;;5002601;28;20049;-68
2023/07/12 11:16:25;;;;;;;22.75;6.13;;;;;;;;;;4994433;28;20124;-68
2023/07/12 11:18:56;;;;;;;27.63;6.22;;;;;;;;;;5002633;28;20784;-69
2023/07/12 11:21:43;;;;;;;26.02;6.07;;;;;;;;;;4995055;28;20038;-68
2023/07/12 11:24:24;;;;;;;32.45;6.18;;;;;;;;;;5000423;28;20058;-70
2023/07/12 11:26:59;;;;;;;19.98;5.30;;;;;;;;;;5001343;28;20069;-71
2023/07/12 11:29:25;;;;;;;22.95;5.35;;;;;;;;;;5003567;28;20048;-70
2023/07/12 11:32:25;;;;;;;21.70;6.22;;;;;;;;;;4999578;28;20050;-68
2023/07/12 11:35:09;;;;;;;24.88;5.95;;;;;;;;;;5002955;28;20045;-68
2023/07/12 11:37:41;;;;;;;28.73;6.65;;;;;;;;;;4997736;28;20046;-69
2023/07/12 11:40:20;;;;;;;21.08;6.13;;;;;;;;;;5002661;28;20633;-70
2023/07/12 11:42:47;;;;;;;20.98;5.65;;;;;;;;;;5000720;28;20046;-69
2023/07/12 11:45:17;;;;;;;24.40;5.70;;;;;;;;;;5031971;28;20056;-68
2023/07/12 11:47:51;;;;;;;19.13;5.75;;;;;;;;;;5038249;28;20041;-68
2023/07/12 11:50:26;;;;;;;27.30;6.10;;;;;;;;;;5027641;28;20071;-69
2023/07/12 11:52:54;;;;;;;28.63;5.97;;;;;;;;;;5039958;28;20478;-68
2023/07/12 11:55:25;;;;;;;25.50;5.80;;;;;;;;;;5028607;28;20061;-68
2023/07/12 11:57:51;;;;;;;26.48;6.45;;;;;;;;;;5042870;28;20107;-67
2023/07/12 12:00:21;;;;;;;25.13;6.43;;;;;;;;;;5024430;28;20049;-71
2023/07/12 12:02:53;;;;;;;26.65;6.10;;;;;;;;;;5041305;28;20455;-69
2023/07/12 12:05:25;;;;;;;26.02;6.40;;;;;;;;;;5036361;28;20045;-67
2023/07/12 12:07:54;;;;;;;24.45;6.13;;;;;;;;;;5040377;28;20098;-69
2023/07/12 12:10:24;;;;;;;22.77;5.68;;;;;;;;;;5038392;28;20191;-68
2023/07/12 12:12:52;;;;;;;24.27;6.15;;;;;;;;;;5035790;28;20056;-68
2023/07/12 12:15:24;;;;;;;33.67;6.32;;;;;;;;;;5023874;28;20269;-70
2023/07/12 12:17:53;;;;;;;20.67;5.90;;;;;;;;;;5042094;28;20425;-69
2023/07/12 12:20:26;;;;;;;19.20;6.00;;;;;;;;;;5039677;28;20079;-68
2023/07/12 12:23:19;;;;;;;33.53;6.35;;;;;;;;;;5040988;28;20049;-69
2023/07/12 12:25:47;;;;;;;24.50;5.60;;;;;;;;;;5040362;28;20128;-69
2023/07/12 12:28:26;;;;;;;18.63;5.40;;;;;;;;;;5036358;28;20095;-69
2023/07/12 12:31:20;;;;;;;23.77;6.03;;;;;;;;;;5034498;28;20052;-69
2023/07/12 12:33:47;;;;;;;19.98;5.68;;;;;;;;;;5044875;28;20493;-67
2023/07/12 12:36:28;;;;;;;24.95;5.65;;;;;;;;;;5044013;28;20042;-70
2023/07/12 12:39:25;;;;;;;24.48;5.90;;;;;;;;;;5044117;28;20048;-68
2023/07/12 12:41:58;;;;;;;20.42;5.68;;;;;;;;;;5027779;28;20056;-67
2023/07/12 12:44:30;;;;;;;24.15;5.85;;;;;;;;;;5029351;28;20060;-68
2023/07/12 12:47:00;;;;;;;28.08;6.18;;;;;;;;;;5039198;28;20044;-69
2023/07/12 12:49:30;;;;;;;24.27;6.10;;;;;;;;;;5027826;28;20056;-69
2023/07/12 12:51:59;;;;;;;21.35;5.70;;;;;;;;;;5037971;28;20088;-67
2023/07/12 12:54:25;;;;;;;27.08;5.97;;;;;;;;;;5047412;28;20063;-68
2023/07/12 12:56:51;;;;;;;18.80;5.57;;;;;;;;;;5042449;28;20049;-69
2023/07/12 12:59:19;;;;;;;20.15;5.40;;;;;;;;;;5044453;28;20103;-66
2023/07/12 13:01:46;;;;;;;16.70;5.60;;;;;;;;;;5040248;28;20056;-68
2023/07/12 13:04:13;;;;;;;45.05;6.38;;;;;;;;;;5037800;28;20061;-68
2023/07/12 13:06:40;;;;;;;18.60;5.88;;;;;;;;;;5041037;28;20044;-68
2023/07/12 13:09:20;;;;;;;24.00;5.80;;;;;;;;;;5035922;28;20056;-71
2023/07/12 13:11:50;;;;;;;23.73;6.72;;;;;;;;;;5018713;28;20131;-70
2023/07/12 13:14:16;;;;;;;23.23;5.53;;;;;;;;;;5035123;28;20049;-70
2023/07/12 13:16:43;;;;;;;27.73;6.40;;;;;;;;;;5044757;28;20045;-72
2023/07/12 13:19:12;;;;;;;26.15;5.85;;;;;;;;;;5046021;28;20057;-71
2023/07/12 13:21:38;;;;;;;23.38;5.60;;;;;;;;;;5033523;28;20048;-71
2023/07/12 13:24:05;;;;;;;20.63;5.13;;;;;;;;;;5036092;28;20065;-70
2023/07/12 13:26:34;;;;;;;26.00;5.90;;;;;;;;;;5035989;28;20048;-75
2023/07/12 13:29:00;;;;;;;21.17;5.40;;;;;;;;;;5040369;28;20038;-69
2023/07/12 13:31:27;;;;;;;21.40;6.05;;;;;;;;;;5044471;28;20076;-69
2023/07/12 13:33:53;;;;;;;31.00;5.95;;;;;;;;;;5041091;28;20142;-70
2023/07/12 13:36:29;;;;;;;25.25;5.50;;;;;;;;;;5045652;28;20080;-68
2023/07/12 13:39:19;;;;;;;22.35;5.18;;;;;;;;;;5038901;28;20053;-69
2023/07/12 13:41:47;;;;;;;21.85;5.90;;;;;;;;;;5033235;28;20375;-68
2023/07/12 13:44:14;;;;;;;25.00;6.03;;;;;;;;;;5028633;28;20053;-69
2023/07/12 13:46:42;;;;;;;18.70;5.32;;;;;;;;;;5041770;28;20051;-69
2023/07/12 13:49:13;;;;;;;25.33;5.95;;;;;;;;;;5040092;28;20033;-68
2023/07/12 13:51:39;;;;;;;27.67;5.43;;;;;;;;;;5035326;28;20053;-68
2023/07/12 13:54:06;;;;;;;30.88;6.07;;;;;;;;;;5041133;28;20057;-69
2023/07/12 13:56:33;;;;;;;26.58;5.30;;;;;;;;;;5032606;28;20041;-71
2023/07/12 13:58:59;;;;;;;20.70;5.63;;;;;;;;;;5036148;28;20128;-69
2023/07/12 14:01:26;;;;;;;23.85;6.13;;;;;;;;;;5034728;28;20072;-74
2023/07/12 14:03:54;;;;;;;29.30;5.97;;;;;;;;;;5043177;28;20045;-69
2023/07/12 14:06:21;;;;;;;25.55;5.63;;;;;;;;;;5018512;28;20318;-69
2023/07/12 14:08:50;;;;;;;24.30;5.40;;;;;;;;;;5039066;28;20401;-72
2023/07/12 14:11:26;;;;;;;29.92;5.40;;;;;;;;;;5025785;28;20057;-73
2023/07/12 14:13:53;;;;;;;25.17;5.60;;;;;;;;;;5042776;28;20060;-71
2023/07/12 14:16:20;;;;;;;21.63;5.13;;;;;;;;;;5037129;28;20063;-69
2023/07/12 14:18:47;;;;;;;24.10;5.32;;;;;;;;;;5046266;28;20072;-68
2023/07/12 14:21:14;;;;;;;26.90;5.53;;;;;;;;;;5023061;28;20490;-69
2023/07/12 14:23:43;;;;;;;22.15;5.20;;;;;;;;;;5042092;28;20172;-69
2023/07/12 14:26:20;;;;;;;21.50;5.10;;;;;;;;;;5044351;28;20512;-69
2023/07/12 14:28:47;;;;;;;22.90;5.20;;;;;;;;;;5042146;28;20103;-68
2023/07/12 14:31:20;;;;;;;34.42;5.90;;;;;;;;;;5036240;28;20463;-69
2023/07/12 14:33:47;;;;;;;;;;;;;;;;;;5045143;28;20506;-70
2023/07/12 14:36:18;;;;;;;18.52;4.90;;;;;;;;;;5042079;28;19929;-70
2023/07/12 14:38:45;;;;;;;21.85;5.10;;;;;;;;;;5044622;28;20052;-71
2023/07/12 14:41:21;;;;;;;24.60;5.00;;;;;;;;;;5041720;28;20507;-69
2023/07/12 14:43:48;;;;;;;21.60;4.43;;;;;;;;;;5042018;28;20359;-71
2023/07/12 14:46:15;;;;;;;27.92;5.28;;;;;;;;;;5039468;28;20057;-70
2023/07/12 14:48:42;;;;;;;19.35;4.32;;;;;;;;;;5034773;28;20048;-70
2023/07/12 14:51:20;;;;;;;23.92;4.57;;;;;;;;;;5038284;28;20050;-68
2023/07/12 14:53:47;;;;;;;22.27;4.85;;;;;;;;;;5038972;28;20110;-69
2023/07/12 14:56:13;;;;;;;25.15;4.93;;;;;;;;;;5043394;28;20107;-68
2023/07/12 14:58:39;;;;;;;21.45;4.82;;;;;;;;;;5043477;28;20110;-70
2023/07/12 15:01:18;;;;;;;22.35;4.55;;;;;;;;;;5035075;28;20547;-69
2023/07/12 15:03:44;;;;;;;26.00;5.38;;;;;;;;;;5044001;28;20049;-69
2023/07/12 15:06:10;;;;;;;24.60;5.28;;;;;;;;;;5042060;28;20107;-69
2023/07/12 15:08:36;;;;;;;20.55;4.55;;;;;;;;;;5041086;28;20055;-70
2023/07/12 15:11:10;;;;;;;21.27;5.35;;;;;;;;;;5040642;28;20127;-70
2023/07/12 15:13:36;;;;;;;25.40;5.18;;;;;;;;;;5036096;28;20053;-67
2023/07/12 15:16:02;;;;;;;26.80;5.35;;;;;;;;;;5043117;28;20644;-69
2023/07/12 15:18:28;;;;;;;26.38;5.07;;;;;;;;;;5030597;28;20044;-70
2023/07/12 15:20:56;;;;;;;18.77;4.88;;;;;;;;;;5036641;28;20079;-69
2023/07/12 15:23:31;;;;;;;23.60;4.80;;;;;;;;;;5039859;28;20057;-69
2023/07/12 15:25:58;;;;;;;17.98;5.07;;;;;;;;;;5042754;28;20046;-69
2023/07/12 15:28:24;;;;;;;28.05;5.45;;;;;;;;;;5039085;28;20049;-69
2023/07/12 15:30:52;;;;;;;23.48;5.05;;;;;;;;;;5036275;28;20103;-68
2023/07/12 15:33:25;;;;;;;22.20;5.70;;;;;;;;;;5038024;28;20048;-69
2023/07/12 15:35:52;;;;;;;19.23;5.10;;;;;;;;;;5028915;28;20107;-69
2023/07/12 15:38:18;;;;;;;25.38;5.40;;;;;;;;;;5041219;28;20076;-68
2023/07/12 15:41:06;;;;;;;20.48;6.13;;;;;;;;;;5030413;28;20048;-69
2023/07/12 15:43:35;;;;;;;22.85;5.43;;;;;;;;;;5041694;28;20049;-70
2023/07/12 15:46:04;;;;;;;33.15;6.10;;;;;;;;;;5041357;28;20044;-68
2023/07/12 15:48:32;;;;;;;22.92;5.43;;;;;;;;;;5040438;28;20056;-68
2023/07/12 15:51:22;;;;;;;28.60;5.88;;;;;;;;;;5034105;28;20055;-68
2023/07/12 15:53:51;;;;;;;23.58;6.10;;;;;;;;;;5044266;28;20045;-69
2023/07/12 15:56:21;;;;;;;23.77;5.88;;;;;;;;;;5031346;28;20051;-68
2023/07/12 15:58:48;;;;;;;34.28;5.72;;;;;;;;;;5043264;28;20496;-70
2023/07/12 16:01:26;;;;;;;23.20;5.18;;;;;;;;;;5041532;28;20049;-69
2023/07/12 16:03:53;;;;;;;21.80;5.32;;;;;;;;;;5036427;28;20108;-70
2023/07/12 16:06:20;;;;;;;28.35;5.95;;;;;;;;;;5044328;28;20049;-70
2023/07/12 16:08:51;;;;;;;22.63;5.15;;;;;;;;;;5039356;28;20489;-69
2023/07/12 16:11:16;;;;;;;22.13;5.15;;;;;;;;;;5039828;28;20075;-70
2023/07/12 16:13:43;;;;;;;21.42;5.50;;;;;;;;;;5044237;28;20056;-69
2023/07/12 16:16:21;;;;;;;29.17;6.50;;;;;;;;;;5045404;28;20771;-69
2023/07/12 16:18:47;;;;;;;26.45;6.50;;;;;;;;;;5044746;28;20393;-69
2023/07/12 16:21:17;;;;;;;24.73;5.47;;;;;;;;;;5045512;28;20080;-70
2023/07/12 16:23:44;;;;;;;24.70;5.35;;;;;;;;;;5041579;28;20052;-70
2023/07/12 16:26:14;;;;;;;25.15;5.15;;;;;;;;;;5044936;28;20563;-70
2023/07/12 16:28:40;;;;;;;20.80;5.43;;;;;;;;;;5042960;28;20049;-69
2023/07/12 16:31:24;;;;;;;27.55;5.38;;;;;;;;;;5042100;28;20053;-69
2023/07/12 16:33:52;;;;;;;23.08;5.25;;;;;;;;;;5044886;28;20183;-71
2023/07/12 16:36:18;;;;;;;23.45;5.03;;;;;;;;;;5043984;28;20083;-70
2023/07/12 16:38:44;;;;;;;20.33;4.85;;;;;;;;;;5041075;28;20049;-71
2023/07/12 16:41:28;;;;;;;24.17;6.05;;;;;;;;;;5043853;28;20500;-68
2023/07/12 16:43:55;;;;;;;29.88;5.88;;;;;;;;;;5043230;28;20112;-71
2023/07/12 16:46:23;;;;;;;21.13;5.50;;;;;;;;;;5035111;28;20118;-70
2023/07/12 16:48:50;;;;;;;21.98;5.55;;;;;;;;;;5038754;28;20239;-70
2023/07/12 16:51:27;;;;;;;21.45;5.70;;;;;;;;;;5039262;28;20485;-71
2023/07/12 16:53:53;;;;;;;24.83;5.65;;;;;;;;;;5041225;28;20064;-69
2023/07/12 16:56:59;;;;;;;20.40;5.15;;;;;;;;;;5032943;28;20040;-69
2023/07/12 17:00:40;;;;;;;28.63;5.80;;;;;;;;;;5032953;28;20162;-70
2023/07/12 17:04:19;;;;;;;30.73;5.75;;;;;;;;;;5038523;28;20130;-70
2023/07/12 17:08:00;;;;;;;28.13;5.85;;;;;;;;;;5036802;28;20052;-69
2023/07/12 17:11:40;;;;;;;29.02;5.38;;;;;;;;;;5034964;28;20145;-70
2023/07/12 17:15:20;;;;;;;27.50;5.45;;;;;;;;;;5037420;28;20053;-69
2023/07/12 17:19:02;;;;;;;26.40;6.25;;;;;;;;;;5028439;28;20056;-74
2023/07/12 17:22:41;;;;;;;26.98;5.32;;;;;;;;;;5029681;28;20128;-73
2023/07/12 17:26:22;;;;;;;21.40;5.65;;;;;;;;;;5033399;28;20114;-75
2023/07/12 17:30:02;;;;;;;21.90;5.53;;;;;;;;;;5033706;28;20053;-75
2023/07/12 17:33:42;;;;;;;24.08;5.78;;;;;;;;;;5037635;28;20099;-71
2023/07/12 17:37:25;;;;;;;23.35;5.25;;;;;;;;;;5023206;28;20506;-75
2023/07/12 17:41:08;;;;;;;23.17;5.85;;;;;;;;;;5025186;28;20049;-79
2023/07/12 17:44:47;;;;;;;30.45;5.43;;;;;;;;;;5018480;28;20504;-71
2023/07/12 17:48:23;;;;;;;18.65;5.28;;;;;;;;;;5023072;28;20049;-71
2023/07/12 17:51:28;;;;;;;33.70;6.72;;;;;;;;;;5027031;28;20062;-71
2023/07/12 17:53:57;;;;;;;24.63;5.70;;;;;;;;;;5022159;28;20045;-70
2023/07/12 17:56:23;;;;;;;23.23;5.97;;;;;;;;;;5022887;28;20048;-71
2023/07/12 17:58:50;;;;;;;31.67;6.05;;;;;;;;;;5021294;28;20071;-70
2023/07/12 18:01:55;;;;;;;16.77;5.40;;;;;;;;;;5023063;28;20061;-70
2023/07/12 18:05:41;;;;;;;23.90;5.72;;;;;;;;;;5022764;28;20105;-71
2023/07/12 18:09:21;;;;;;;29.27;7.05;;;;;;;;;;5019243;28;20045;-67
2023/07/12 18:13:03;;;;;;;22.50;5.32;;;;;;;;;;5018990;28;20787;-68
2023/07/12 18:16:04;;;;;;;24.63;5.60;;;;;;;;;;5021417;28;20049;-69
2023/07/12 18:19:11;;;;;;;19.35;5.32;;;;;;;;;;5017736;28;20481;-67
2023/07/12 18:22:51;;;;;;;25.90;5.60;;;;;;;;;;5019215;28;20060;-67
2023/07/12 18:25:52;;;;;;;23.48;5.47;;;;;;;;;;5024185;28;20055;-67
2023/07/12 18:28:58;;;;;;;26.95;6.50;;;;;;;;;;5016751;28;20048;-67
2023/07/12 18:32:37;;;;;;;26.00;5.93;;;;;;;;;;5019617;28;22417;-69
2023/07/12 18:36:19;;;;;;;24.40;5.93;;;;;;;;;;5021619;28;20077;-70
2023/07/12 18:39:59;;;;;;;26.27;6.18;;;;;;;;;;5035850;28;20052;-68
2023/07/12 18:43:00;;;;;;;26.30;6.05;;;;;;;;;;5031355;28;20032;-67